Sima — WDE9390 — position and weather

sailwx.info

Track history (hours):
 
Tides and Currents Weather Stations Pressure Air Temp Water Temp Dewpoint Dewpoint Depression Visibility Wind Speed Wind Dir Waves Ship Positions

Sima

Owner: M Cooper LLC, New York, NY. More information available from US FCC via Universal Licensing System and Coast Guard Vessel Documentation Center.

Last reported at 2018-Jun-21 01:22 UTC. Time now 2018-Jun-21 08:46 UTC.
Position N 40°45' W 074°01'.

Length 32 m.

Type: Pleasure craft. MMSI: 367416660.

Date/timePositionNaut miles runAvg speedWind from/ knotsBaromVisibWave heightAir tempDewpointWater temp
2018-Jun-21 01:22N 40°45' W 074°01'0 1.2
2018-Jun-21 01:00N 40°45' W 074°01'0 1.0
2018-Jun-21 00:31N 40°44' W 074°01'2 4.3
2018-Jun-20 23:59N 40°42' W 073°59'2 4.7
2018-Jun-20 23:30N 40°42' W 074°02'1 2.8
2018-Jun-20 23:00N 40°43' W 074°02'  
2018-Jun-13 18:47N 40°45' W 074°01'2 5.5
2018-Jun-13 18:30N 40°43' W 074°01'3 5.4
2018-Jun-13 17:59N 40°40' W 074°03'1 1.6
2018-Jun-13 17:30N 40°41' W 074°02'  
Track history (hours):
 
Tides and Currents Weather Stations Pressure Air Temp Water Temp Dewpoint Dewpoint Depression Visibility Wind Speed Wind Dir Waves Ship Positions

Sima

Owner: M Cooper LLC, New York, NY. More information available from US FCC via Universal Licensing System and Coast Guard Vessel Documentation Center.

Last reported at 2018-Jun-21 01:22 UTC. Time now 2018-Jun-21 08:46 UTC.
Position N 40°45' W 074°01'.

Length 32 m.

Type: Pleasure craft. MMSI: 367416660.

Date/timePositionNaut miles runAvg speedWind from/ knotsBaromVisibWave heightAir tempDewpointWater temp
2018-Jun-21 01:22N 40°45' W 074°01'0 1.2
2018-Jun-21 01:00N 40°45' W 074°01'0 1.0
2018-Jun-21 00:31N 40°44' W 074°01'2 4.3
2018-Jun-20 23:59N 40°42' W 073°59'2 4.7
2018-Jun-20 23:30N 40°42' W 074°02'1 2.8
2018-Jun-20 23:00N 40°43' W 074°02'  
2018-Jun-13 18:47N 40°45' W 074°01'2 5.5
2018-Jun-13 18:30N 40°43' W 074°01'3 5.4
2018-Jun-13 17:59N 40°40' W 074°03'1 1.6
2018-Jun-13 17:30N 40°41' W 074°02'  

Dump ship's entire track history